createdAt,value
2018-05-26T00:00:03.368Z,15.03
2018-05-26T00:00:07.364Z,15.05
2018-05-26T00:00:11.472Z,15.11
2018-05-26T00:00:15.692Z,15.01
2018-05-26T00:00:19.801Z,15.04
2018-05-26T00:00:24.056Z,15.09
2018-05-26T00:00:28.373Z,15.07
2018-05-26T00:00:32.593Z,15.04
2018-05-26T00:00:36.591Z,15.04
2018-05-26T00:00:40.921Z,14.98
2018-05-26T00:00:45.139Z,15.07
2018-05-26T00:00:49.138Z,15.07
2018-05-26T00:00:53.456Z,15.01
2018-05-26T00:00:57.560Z,15.04
2018-05-26T00:01:01.774Z,15.05
2018-05-26T00:01:06.108Z,14.97
2018-05-26T00:01:10.220Z,15.05
2018-05-26T00:01:14.543Z,15.03
2018-05-26T00:01:18.760Z,15.11
2018-05-26T00:01:37.795Z,15.05
2018-05-26T00:01:42.003Z,15.12
2018-05-26T00:01:46.329Z,15.13
2018-05-26T00:01:50.430Z,15.03
2018-05-26T00:01:54.643Z,15.11
2018-05-26T00:01:58.855Z,15.04
2018-05-26T00:02:02.905Z,14.97
2018-05-26T00:02:06.904Z,14.98
2018-05-26T00:02:11.003Z,15.01
2018-05-26T00:02:15.211Z,14.97
2018-05-26T00:02:19.426Z,15.09
2018-05-26T00:02:23.788Z,15.05
2018-05-26T00:02:27.995Z,15.03
2018-05-26T00:02:32.311Z,15.03
2018-05-26T00:02:36.528Z,14.95
2018-05-26T00:02:40.748Z,15.01
2018-05-26T00:02:44.960Z,15
2018-05-26T00:02:49.283Z,15.03
2018-05-26T00:02:53.603Z,15.04
2018-05-26T00:02:57.810Z,15.03
2018-05-26T00:03:01.920Z,15.03
2018-05-26T00:03:06.132Z,14.97
2018-05-26T00:03:10.130Z,15.07
2018-05-26T00:03:14.343Z,14.98
2018-05-26T00:03:18.553Z,14.98
2018-05-26T00:03:22.878Z,15.03
2018-05-26T00:03:27.206Z,15.01
2018-05-26T00:03:31.526Z,14.93
2018-05-26T00:03:35.629Z,15.03
2018-05-26T00:03:39.835Z,15
2018-05-26T00:03:44.049Z,14.98
2018-05-26T00:03:48.367Z,14.93
2018-05-26T00:03:52.690Z,14.95
2018-05-26T00:03:56.905Z,15.04
2018-05-26T00:04:01.007Z,15.01
2018-05-26T00:04:05.213Z,14.98
2018-05-26T00:04:09.209Z,15
2018-05-26T00:04:13.561Z,14.94
2018-05-26T00:04:17.677Z,14.95
2018-05-26T00:04:21.682Z,15.04
2018-05-26T00:04:25.682Z,15.03
2018-05-26T00:04:30.034Z,14.94
2018-05-26T00:04:34.144Z,14.98
2018-05-26T00:04:38.360Z,14.95
2018-05-26T00:04:42.358Z,14.95
2018-05-26T00:04:46.680Z,14.97
2018-05-26T00:04:50.794Z,14.97
2018-05-26T00:04:54.903Z,15.03
2018-05-26T00:04:59.012Z,14.95
2018-05-26T00:05:03.236Z,14.95
2018-05-26T00:05:07.127Z,14.94
2018-05-26T00:05:11.448Z,15
2018-05-26T00:05:15.554Z,14.95
2018-05-26T00:05:19.658Z,15.01
2018-05-26T00:05:23.988Z,14.95
2018-05-26T00:05:28.194Z,14.97
2018-05-26T00:05:32.301Z,14.98
2018-05-26T00:05:36.514Z,15.03
2018-05-26T00:05:40.729Z,14.98
2018-05-26T00:05:45.052Z,15.01
2018-05-26T00:05:49.264Z,15.01
2018-05-26T00:05:53.368Z,14.97
2018-05-26T00:05:57.579Z,14.91
2018-05-26T00:06:01.589Z,14.97
2018-05-26T00:06:05.543Z,14.91
2018-05-26T00:06:09.657Z,14.94
2018-05-26T00:06:13.870Z,14.94
2018-05-26T00:06:18.081Z,14.95
2018-05-26T00:06:22.305Z,14.98
2018-05-26T00:06:26.315Z,14.94
2018-05-26T00:06:30.317Z,14.98
2018-05-26T00:06:34.420Z,14.98
2018-05-26T00:06:38.529Z,14.95
2018-05-26T00:06:42.853Z,15.01
2018-05-26T00:06:47.072Z,14.97
2018-05-26T00:06:51.068Z,14.94
2018-05-26T00:06:55.281Z,14.97
2018-05-26T00:06:59.617Z,14.98
2018-05-26T00:07:03.406Z,15.01
2018-05-26T00:07:07.732Z,14.95
2018-05-26T00:07:12.048Z,15.01
2018-05-26T00:07:16.365Z,15.01
2018-05-26T00:07:20.363Z,15.03
2018-05-26T00:07:24.572Z,14.94
2018-05-26T00:07:28.686Z,15.05
2018-05-26T00:07:32.898Z,14.98
2018-05-26T00:07:37.116Z,14.94
2018-05-26T00:07:41.327Z,15.03
2018-05-26T00:07:45.547Z,14.97
2018-05-26T00:07:49.551Z,14.95
2018-05-26T00:07:53.863Z,14.97
2018-05-26T00:07:58.226Z,14.97
2018-05-26T00:08:02.338Z,14.94
2018-05-26T00:08:06.440Z,15.05
2018-05-26T00:08:10.555Z,15.01
2018-05-26T00:08:14.658Z,14.97
2018-05-26T00:08:18.766Z,14.95
2018-05-26T00:08:22.884Z,14.98
2018-05-26T00:08:27.106Z,15
2018-05-26T00:08:31.315Z,15.03
2018-05-26T00:08:35.535Z,14.97
2018-05-26T00:08:39.750Z,14.98
2018-05-26T00:08:43.750Z,14.97
2018-05-26T00:08:47.862Z,14.93
2018-05-26T00:08:51.966Z,14.91
2018-05-26T00:08:56.180Z,15
2018-05-26T00:09:00.285Z,14.97
2018-05-26T00:09:04.503Z,14.97
2018-05-26T00:09:08.712Z,14.97
2018-05-26T00:09:12.710Z,14.97
2018-05-26T00:09:17.026Z,14.97
2018-05-26T00:09:21.350Z,14.97
2018-05-26T00:09:25.463Z,14.98
2018-05-26T00:09:29.575Z,14.93
2018-05-26T00:09:33.680Z,15
2018-05-26T00:09:37.894Z,15.05
2018-05-26T00:09:42.101Z,15.04
2018-05-26T00:09:46.315Z,14.97
2018-05-26T00:09:50.420Z,14.95
2018-05-26T00:09:54.524Z,15.01
2018-05-26T00:09:58.738Z,14.97
2018-05-26T00:10:02.963Z,15.04
2018-05-26T00:10:06.961Z,14.97
2018-05-26T00:10:11.174Z,14.94
2018-05-26T00:10:15.386Z,14.97
2018-05-26T00:10:19.715Z,14.97
2018-05-26T00:10:23.933Z,14.97
2018-05-26T00:10:28.037Z,14.95
2018-05-26T00:10:32.268Z,15.03
2018-05-26T00:10:36.385Z,14.97
2018-05-26T00:10:40.497Z,14.94
2018-05-26T00:10:44.602Z,15
2018-05-26T00:10:48.812Z,15
2018-05-26T00:10:52.808Z,15
2018-05-26T00:10:56.912Z,14.98
2018-05-26T00:11:01.128Z,14.98
2018-05-26T00:11:05.121Z,15.04
2018-05-26T00:11:09.223Z,14.95
2018-05-26T00:11:13.443Z,14.97
2018-05-26T00:11:17.652Z,15
2018-05-26T00:11:21.866Z,14.95
2018-05-26T00:11:25.976Z,14.95
2018-05-26T00:11:30.184Z,14.98
2018-05-26T00:11:34.508Z,14.95
2018-05-26T00:11:38.500Z,14.98
2018-05-26T00:11:42.627Z,14.93
2018-05-26T00:11:46.946Z,14.94
2018-05-26T00:11:51.265Z,14.94
2018-05-26T00:11:55.479Z,15.03
2018-05-26T00:11:59.688Z,14.98
2018-05-26T00:12:03.690Z,14.95
2018-05-26T00:12:07.901Z,14.98
2018-05-26T00:12:12.121Z,14.94
2018-05-26T00:12:16.448Z,14.97
2018-05-26T00:12:20.660Z,15
2018-05-26T00:12:24.881Z,14.97
2018-05-26T00:12:29.091Z,14.94
2018-05-26T00:12:33.405Z,15.01
2018-05-26T00:12:37.506Z,14.98
2018-05-26T00:12:41.712Z,14.98
2018-05-26T00:12:45.945Z,14.97
2018-05-26T00:12:50.064Z,14.94
2018-05-26T00:12:54.181Z,14.97
2018-05-26T00:12:58.498Z,14.97
2018-05-26T00:13:02.721Z,14.98
2018-05-26T00:13:06.822Z,14.97
2018-05-26T00:13:11.151Z,14.95
2018-05-26T00:13:15.470Z,14.97
2018-05-26T00:13:19.792Z,15
2018-05-26T00:13:23.906Z,15.01
2018-05-26T00:13:27.900Z,14.98
2018-05-26T00:13:32.108Z,14.98
2018-05-26T00:13:36.321Z,14.98
2018-05-26T00:13:40.427Z,14.95
2018-05-26T00:13:44.752Z,14.94
2018-05-26T00:13:48.969Z,15
2018-05-26T00:13:52.969Z,15
2018-05-26T00:13:57.068Z,14.97
2018-05-26T00:14:01.386Z,15
2018-05-26T00:14:05.491Z,14.98
2018-05-26T00:14:09.594Z,14.97
2018-05-26T00:14:13.697Z,14.98
2018-05-26T00:14:17.838Z,14.98
2018-05-26T00:14:22.154Z,15.01
2018-05-26T00:14:26.326Z,15
2018-05-26T00:14:30.429Z,14.94
2018-05-26T00:14:34.650Z,14.97
2018-05-26T00:14:38.905Z,14.91
2018-05-26T00:14:43.121Z,14.97
2018-05-26T00:14:47.117Z,14.94
2018-05-26T00:14:51.223Z,14.98
2018-05-26T00:14:55.440Z,14.94
2018-05-26T00:14:59.658Z,15.03
2018-05-26T00:15:03.767Z,14.97
2018-05-26T00:15:07.999Z,15
2018-05-26T00:15:12.212Z,15
2018-05-26T00:15:16.528Z,14.97
2018-05-26T00:15:20.846Z,14.95
2018-05-26T00:15:25.061Z,14.97
2018-05-26T00:15:29.287Z,14.95
2018-05-26T00:15:33.499Z,14.95
2018-05-26T00:15:37.605Z,14.98
2018-05-26T00:15:41.745Z,15
2018-05-26T00:15:45.886Z,14.95
2018-05-26T00:15:50.100Z,15
2018-05-26T00:15:54.417Z,14.98
2018-05-26T00:15:58.526Z,15.01
2018-05-26T00:16:02.529Z,14.94
2018-05-26T00:16:06.777Z,15.03
2018-05-26T00:16:11.098Z,14.97
2018-05-26T00:16:15.315Z,15.03
2018-05-26T00:16:19.417Z,14.95
2018-05-26T00:16:23.523Z,14.95
2018-05-26T00:16:27.518Z,14.95
2018-05-26T00:16:31.728Z,14.98
2018-05-26T00:16:35.952Z,15
2018-05-26T00:16:40.176Z,15
2018-05-26T00:16:44.500Z,14.98
2018-05-26T00:16:48.601Z,14.91
2018-05-26T00:16:52.923Z,14.91
2018-05-26T00:16:57.033Z,14.98
2018-05-26T00:17:01.362Z,14.94
2018-05-26T00:17:05.471Z,14.98
2018-05-26T00:17:09.685Z,14.97
2018-05-26T00:17:13.901Z,14.97
2018-05-26T00:17:18.220Z,14.94
2018-05-26T00:17:22.454Z,14.94
2018-05-26T00:17:26.674Z,15
2018-05-26T00:17:30.885Z,14.94
2018-05-26T00:17:35.203Z,14.91
2018-05-26T00:17:39.196Z,14.94
2018-05-26T00:17:43.293Z,14.94
2018-05-26T00:17:47.459Z,14.97
2018-05-26T00:17:51.553Z,14.94
2018-05-26T00:17:55.666Z,15.01
2018-05-26T00:17:59.926Z,14.94
2018-05-26T00:18:04.054Z,15
2018-05-26T00:18:08.265Z,14.97
2018-05-26T00:18:12.578Z,14.95
2018-05-26T00:18:16.681Z,15
2018-05-26T00:18:21.003Z,15
2018-05-26T00:18:25.104Z,15
2018-05-26T00:18:29.423Z,14.94
2018-05-26T00:18:33.542Z,15
2018-05-26T00:18:37.757Z,14.93
2018-05-26T00:18:41.867Z,14.93
2018-05-26T00:18:46.081Z,14.95
2018-05-26T00:18:50.195Z,14.98
2018-05-26T00:18:54.509Z,14.94
2018-05-26T00:18:58.827Z,14.95
2018-05-26T00:19:03.079Z,14.95
2018-05-26T00:19:07.305Z,14.9
2018-05-26T00:19:11.629Z,14.91
2018-05-26T00:19:15.839Z,14.86
2018-05-26T00:19:19.945Z,14.87
2018-05-26T00:19:24.154Z,14.94
2018-05-26T00:19:28.325Z,14.9
2018-05-26T00:19:32.547Z,14.91
2018-05-26T00:19:36.666Z,14.95
2018-05-26T00:19:40.981Z,14.87
2018-05-26T00:19:45.080Z,14.93
2018-05-26T00:19:49.085Z,14.95
2018-05-26T00:19:53.199Z,14.95
2018-05-26T00:19:57.407Z,14.95
2018-05-26T00:20:01.511Z,14.87
2018-05-26T00:20:05.513Z,14.94
2018-05-26T00:20:09.837Z,14.87
2018-05-26T00:20:14.159Z,14.91
2018-05-26T00:20:18.482Z,14.97
2018-05-26T00:20:22.693Z,14.86
2018-05-26T00:20:26.799Z,14.9
2018-05-26T00:20:30.694Z,14.87
2018-05-26T00:20:34.699Z,14.93
2018-05-26T00:20:39.090Z,14.93
2018-05-26T00:20:43.201Z,15.01
2018-05-26T00:20:47.301Z,14.9
2018-05-26T00:20:51.405Z,14.93
2018-05-26T00:20:55.612Z,14.9
2018-05-26T00:20:59.723Z,14.87
2018-05-26T00:21:03.880Z,14.9
2018-05-26T00:21:07.881Z,14.87
2018-05-26T00:21:12.203Z,14.93
2018-05-26T00:21:16.416Z,14.87
2018-05-26T00:21:20.632Z,14.94
2018-05-26T00:21:24.847Z,14.93
2018-05-26T00:21:28.735Z,14.94
2018-05-26T00:21:32.946Z,14.94
2018-05-26T00:21:37.162Z,14.9
2018-05-26T00:21:41.266Z,14.91
2018-05-26T00:21:45.478Z,14.85
2018-05-26T00:21:49.701Z,14.94
2018-05-26T00:21:53.912Z,14.87
2018-05-26T00:21:58.157Z,14.87
2018-05-26T00:22:02.269Z,14.87
2018-05-26T00:22:06.369Z,14.87
2018-05-26T00:22:10.577Z,14.94
2018-05-26T00:22:14.683Z,14.9
2018-05-26T00:22:18.573Z,14.94
2018-05-26T00:22:22.785Z,14.85
2018-05-26T00:22:27.115Z,14.86
2018-05-26T00:22:31.442Z,14.83
2018-05-26T00:22:35.548Z,14.91
2018-05-26T00:22:39.874Z,14.86
2018-05-26T00:22:43.869Z,14.85
2018-05-26T00:22:48.091Z,14.91
2018-05-26T00:22:52.320Z,14.85
2018-05-26T00:22:56.641Z,14.87
2018-05-26T00:23:00.973Z,14.95
2018-05-26T00:23:05.093Z,14.9
2018-05-26T00:23:09.318Z,14.94
2018-05-26T00:23:13.420Z,14.93
2018-05-26T00:23:17.528Z,14.83
2018-05-26T00:23:21.544Z,14.79
2018-05-26T00:23:25.549Z,14.87
2018-05-26T00:23:29.772Z,14.83
2018-05-26T00:23:33.883Z,14.93
2018-05-26T00:23:38.204Z,14.86
2018-05-26T00:23:42.427Z,14.86
2018-05-26T00:23:46.529Z,14.79
2018-05-26T00:23:50.530Z,14.86
2018-05-26T00:23:54.628Z,14.93
2018-05-26T00:23:58.836Z,14.94
2018-05-26T00:24:02.989Z,14.95
2018-05-26T00:24:07.102Z,14.8
2018-05-26T00:24:11.322Z,14.86
2018-05-26T00:24:15.423Z,14.86
2018-05-26T00:24:19.310Z,14.93
2018-05-26T00:24:23.418Z,14.94
2018-05-26T00:24:27.650Z,14.87
2018-05-26T00:24:31.756Z,14.9
2018-05-26T00:24:35.857Z,14.9
2018-05-26T00:24:40.176Z,14.79
2018-05-26T00:24:44.390Z,14.95
2018-05-26T00:24:48.725Z,14.97
2018-05-26T00:24:52.730Z,14.82
2018-05-26T00:24:56.838Z,14.85
2018-05-26T00:25:01.050Z,14.87
2018-05-26T00:25:05.056Z,14.83
2018-05-26T00:25:09.277Z,14.82
2018-05-26T00:25:13.485Z,14.86
2018-05-26T00:25:17.698Z,14.82
2018-05-26T00:25:21.910Z,14.8
2018-05-26T00:25:26.031Z,14.87
2018-05-26T00:25:30.411Z,14.85
2018-05-26T00:25:35.173Z,14.94
2018-05-26T00:25:39.890Z,14.83
2018-05-26T00:25:44.269Z,14.9
2018-05-26T00:25:48.278Z,14.93
2018-05-26T00:25:52.381Z,14.87
2018-05-26T00:25:56.493Z,14.95
2018-05-26T00:26:00.709Z,14.82
2018-05-26T00:26:04.708Z,14.94
2018-05-26T00:26:09.034Z,14.83
2018-05-26T00:26:13.148Z,14.87
2018-05-26T00:26:17.365Z,14.83
2018-05-26T00:26:21.615Z,14.86
2018-05-26T00:26:25.934Z,14.9
2018-05-26T00:26:30.147Z,14.86
2018-05-26T00:26:34.472Z,14.9
2018-05-26T00:26:38.370Z,14.86
2018-05-26T00:26:42.473Z,14.82
2018-05-26T00:26:46.699Z,14.9
2018-05-26T00:26:51.031Z,14.83
2018-05-26T00:26:55.242Z,14.9
2018-05-26T00:26:59.342Z,14.86
2018-05-26T00:27:03.560Z,14.87
2018-05-26T00:27:07.786Z,14.83
2018-05-26T00:27:11.679Z,14.83
2018-05-26T00:27:15.803Z,14.75
2018-05-26T00:27:20.013Z,14.82
2018-05-26T00:27:24.336Z,14.79
2018-05-26T00:27:28.546Z,14.78
2018-05-26T00:27:32.647Z,14.82
2018-05-26T00:27:36.865Z,14.83
2018-05-26T00:27:41.084Z,14.83
2018-05-26T00:27:45.293Z,14.93
2018-05-26T00:27:49.402Z,14.83
2018-05-26T00:27:53.610Z,14.91
2018-05-26T00:27:57.713Z,14.86
2018-05-26T00:28:01.826Z,14.75
2018-05-26T00:28:06.044Z,14.8
2018-05-26T00:28:10.268Z,14.85
2018-05-26T00:28:14.485Z,14.8
2018-05-26T00:28:18.489Z,14.78
2018-05-26T00:28:22.714Z,14.82
2018-05-26T00:28:26.823Z,14.83
2018-05-26T00:28:30.818Z,14.82
2018-05-26T00:28:35.033Z,14.82
2018-05-26T00:28:39.370Z,14.8
2018-05-26T00:28:43.483Z,14.85
2018-05-26T00:28:47.801Z,14.8
2018-05-26T00:28:52.010Z,14.85
2018-05-26T00:28:56.117Z,14.83
2018-05-26T00:29:00.326Z,14.79
2018-05-26T00:29:04.433Z,14.82
2018-05-26T00:29:08.454Z,14.82
2018-05-26T00:29:12.664Z,14.82
2018-05-26T00:29:16.779Z,14.83
2018-05-26T00:29:20.990Z,14.82
2018-05-26T00:29:25.210Z,14.82
2018-05-26T00:29:29.429Z,14.8
2018-05-26T00:29:33.748Z,14.82
2018-05-26T00:29:37.960Z,14.75
2018-05-26T00:29:42.180Z,14.83
2018-05-26T00:29:46.285Z,14.8
2018-05-26T00:29:50.601Z,14.85
2018-05-26T00:29:54.700Z,14.82
2018-05-26T00:29:59.015Z,14.82
2018-05-26T00:30:03.222Z,14.78
2018-05-26T00:30:07.010Z,14.83
2018-05-26T00:30:11.330Z,14.79
2018-05-26T00:30:15.539Z,14.8
2018-05-26T00:30:19.798Z,14.83
2018-05-26T00:30:24.116Z,14.8
2018-05-26T00:30:28.332Z,14.85
2018-05-26T00:30:32.559Z,14.8
2018-05-26T00:30:36.878Z,14.82
2018-05-26T00:30:41.087Z,14.87
2018-05-26T00:30:45.412Z,14.87
2018-05-26T00:30:49.519Z,14.83
2018-05-26T00:30:53.845Z,14.75
2018-05-26T00:30:58.059Z,14.83
2018-05-26T00:31:02.275Z,14.79
2018-05-26T00:31:06.377Z,14.9
2018-05-26T00:31:10.595Z,14.86
2018-05-26T00:31:14.803Z,14.83
2018-05-26T00:31:19.122Z,14.82
2018-05-26T00:31:23.223Z,14.82
2018-05-26T00:31:27.335Z,14.8
2018-05-26T00:31:31.662Z,14.82
2018-05-26T00:31:35.878Z,14.8
2018-05-26T00:31:40.202Z,14.79
2018-05-26T00:31:44.320Z,14.82
2018-05-26T00:31:48.639Z,14.9
2018-05-26T00:31:52.853Z,14.83
2018-05-26T00:31:57.185Z,14.85
2018-05-26T00:32:01.191Z,14.83
2018-05-26T00:32:05.308Z,14.86
2018-05-26T00:32:09.519Z,14.82
2018-05-26T00:32:13.624Z,14.8
2018-05-26T00:32:17.728Z,14.78
2018-05-26T00:32:22.048Z,14.8
2018-05-26T00:32:26.259Z,14.86
2018-05-26T00:32:30.364Z,14.85
2018-05-26T00:32:34.468Z,14.87
2018-05-26T00:32:38.581Z,14.8
2018-05-26T00:32:42.590Z,14.82
2018-05-26T00:32:46.809Z,14.85
2018-05-26T00:32:50.803Z,14.8
2018-05-26T00:32:54.906Z,14.83
2018-05-26T00:32:59.015Z,14.8
2018-05-26T00:33:03.227Z,14.79
2018-05-26T00:33:07.555Z,14.82
2018-05-26T00:33:11.767Z,14.79
2018-05-26T00:33:16.097Z,14.78
2018-05-26T00:33:20.309Z,14.82
2018-05-26T00:33:24.414Z,14.82
2018-05-26T00:33:28.624Z,14.75
2018-05-26T00:33:32.620Z,14.79
2018-05-26T00:33:36.951Z,14.79
2018-05-26T00:33:41.174Z,14.83
2018-05-26T00:33:45.169Z,14.79
2018-05-26T00:33:49.384Z,14.83
2018-05-26T00:33:53.595Z,14.85
2018-05-26T00:33:57.590Z,14.86
2018-05-26T00:34:01.916Z,14.87
2018-05-26T00:34:06.073Z,14.8
2018-05-26T00:34:10.068Z,14.79
2018-05-26T00:34:14.274Z,14.83
2018-05-26T00:34:18.600Z,14.79
2018-05-26T00:34:22.820Z,14.8
2018-05-26T00:34:27.060Z,14.82
2018-05-26T00:34:31.163Z,14.83
2018-05-26T00:34:35.372Z,14.83
2018-05-26T00:34:39.577Z,14.8
2018-05-26T00:34:43.579Z,14.85
2018-05-26T00:34:47.790Z,14.83
2018-05-26T00:34:52.121Z,14.8
2018-05-26T00:34:56.334Z,14.8
2018-05-26T00:35:00.332Z,14.83
2018-05-26T00:35:04.634Z,14.86
2018-05-26T00:35:08.742Z,14.78
2018-05-26T00:35:12.849Z,14.82
2018-05-26T00:35:16.952Z,14.8
2018-05-26T00:35:21.053Z,14.75
2018-05-26T00:35:25.162Z,14.79
2018-05-26T00:35:29.482Z,14.85
2018-05-26T00:35:33.690Z,14.83
2018-05-26T00:35:37.915Z,14.79
2018-05-26T00:35:42.236Z,14.83
2018-05-26T00:35:46.339Z,14.83
2018-05-26T00:35:50.228Z,14.71
2018-05-26T00:35:54.219Z,14.75
2018-05-26T00:35:58.434Z,14.82
2018-05-26T00:36:02.703Z,14.74
2018-05-26T00:36:06.696Z,14.82
2018-05-26T00:36:10.916Z,14.82
2018-05-26T00:36:15.016Z,14.79
2018-05-26T00:36:19.015Z,14.79
2018-05-26T00:36:23.117Z,14.83
2018-05-26T00:36:27.336Z,14.78
2018-05-26T00:36:31.331Z,14.78
2018-05-26T00:36:35.550Z,14.78
2018-05-26T00:36:39.651Z,14.8
2018-05-26T00:36:43.864Z,14.74
2018-05-26T00:36:48.176Z,14.79
2018-05-26T00:36:52.388Z,14.75
2018-05-26T00:36:56.275Z,14.75
2018-05-26T00:37:00.588Z,14.75
2018-05-26T00:37:04.698Z,14.72
2018-05-26T00:37:09.010Z,14.75
2018-05-26T00:37:13.118Z,14.78
2018-05-26T00:37:17.223Z,14.74
2018-05-26T00:37:21.336Z,14.75
2018-05-26T00:37:25.443Z,14.72
2018-05-26T00:37:29.652Z,14.8
2018-05-26T00:37:33.865Z,14.75
2018-05-26T00:37:38.080Z,14.8
2018-05-26T00:37:42.185Z,14.71
2018-05-26T00:37:46.406Z,14.71
2018-05-26T00:37:50.618Z,14.72
2018-05-26T00:37:54.831Z,14.69
2018-05-26T00:37:59.046Z,14.75
2018-05-26T00:38:03.046Z,14.79
2018-05-26T00:38:07.151Z,14.78
2018-05-26T00:38:11.254Z,14.66
2018-05-26T00:38:15.571Z,14.79
2018-05-26T00:38:19.576Z,14.78
2018-05-26T00:38:23.790Z,14.72
2018-05-26T00:38:28.009Z,14.71
2018-05-26T00:38:32.116Z,14.75
2018-05-26T00:38:36.338Z,14.74
2018-05-26T00:38:40.559Z,14.79
2018-05-26T00:38:44.558Z,14.74
2018-05-26T00:38:48.883Z,14.69
2018-05-26T00:38:53.104Z,14.74
2018-05-26T00:38:57.317Z,14.75
2018-05-26T00:39:01.419Z,14.66
2018-05-26T00:39:05.742Z,14.71
2018-05-26T00:39:09.949Z,14.75
2018-05-26T00:39:14.169Z,14.78
2018-05-26T00:39:18.293Z,14.75
2018-05-26T00:39:22.297Z,14.72
2018-05-26T00:39:26.340Z,14.63
2018-05-26T00:39:30.563Z,14.66
2018-05-26T00:39:34.570Z,14.71
2018-05-26T00:39:38.898Z,14.78
2018-05-26T00:39:43.015Z,14.67
2018-05-26T00:39:47.226Z,14.71
2018-05-26T00:39:51.221Z,14.71
2018-05-26T00:39:55.436Z,14.74
2018-05-26T00:39:59.646Z,14.66
2018-05-26T00:40:03.805Z,14.66
2018-05-26T00:40:07.696Z,14.72
2018-05-26T00:40:12.012Z,14.66
2018-05-26T00:40:16.221Z,14.61
2018-05-26T00:40:20.555Z,14.64
2018-05-26T00:40:24.878Z,14.66
2018-05-26T00:40:28.981Z,14.64
2018-05-26T00:40:33.080Z,14.61
2018-05-26T00:40:37.077Z,14.64
2018-05-26T00:40:41.181Z,14.64
2018-05-26T00:40:45.551Z,14.74
2018-05-26T00:40:49.874Z,14.67
2018-05-26T00:40:54.083Z,14.66
2018-05-26T00:40:58.402Z,14.66
2018-05-26T00:41:02.773Z,14.64
2018-05-26T00:41:06.990Z,14.67
2018-05-26T00:41:11.313Z,14.67
2018-05-26T00:41:15.640Z,14.67
2018-05-26T00:41:19.955Z,14.71
2018-05-26T00:41:24.272Z,14.61
2018-05-26T00:41:28.375Z,14.67
2018-05-26T00:41:32.481Z,14.59
2018-05-26T00:41:36.696Z,14.6
2018-05-26T00:41:40.920Z,14.64
2018-05-26T00:41:45.020Z,14.63
2018-05-26T00:41:49.123Z,14.66
2018-05-26T00:41:53.227Z,14.66
2018-05-26T00:41:57.340Z,14.64
2018-05-26T00:42:01.555Z,14.57
2018-05-26T00:42:05.664Z,14.59
2018-05-26T00:42:09.985Z,14.56
2018-05-26T00:42:14.196Z,14.61
2018-05-26T00:42:18.195Z,14.57
2018-05-26T00:42:22.415Z,14.64
2018-05-26T00:42:26.634Z,14.63
2018-05-26T00:42:30.958Z,14.66
2018-05-26T00:42:35.278Z,14.59
2018-05-26T00:42:39.166Z,14.56
2018-05-26T00:42:43.381Z,14.56
2018-05-26T00:42:47.705Z,14.56
2018-05-26T00:42:51.917Z,14.59
2018-05-26T00:42:56.130Z,14.57
2018-05-26T00:43:00.352Z,14.53
2018-05-26T00:43:04.351Z,14.57
2018-05-26T00:43:08.458Z,14.57
2018-05-26T00:43:12.774Z,14.56
2018-05-26T00:43:17.097Z,14.57
2018-05-26T00:43:21.335Z,14.6
2018-05-26T00:43:25.441Z,14.54
2018-05-26T00:43:29.654Z,14.57
2018-05-26T00:43:33.861Z,14.54
2018-05-26T00:43:38.190Z,14.6
2018-05-26T00:43:42.524Z,14.59
2018-05-26T00:43:46.629Z,14.54
2018-05-26T00:43:50.943Z,14.57
2018-05-26T00:43:55.050Z,14.6
2018-05-26T00:43:59.262Z,14.57
2018-05-26T00:44:03.252Z,14.56
2018-05-26T00:44:07.141Z,14.53
2018-05-26T00:44:11.468Z,14.59
2018-05-26T00:44:15.785Z,14.54
2018-05-26T00:44:20.007Z,14.56
2018-05-26T00:44:24.123Z,14.53
2018-05-26T00:44:28.268Z,14.52
2018-05-26T00:44:32.478Z,14.57
2018-05-26T00:44:36.481Z,14.54
2018-05-26T00:44:40.694Z,14.53
2018-05-26T00:44:44.630Z,14.44
2018-05-26T00:44:48.842Z,14.56
2018-05-26T00:44:52.842Z,14.48
2018-05-26T00:44:57.051Z,14.46
2018-05-26T00:45:01.434Z,14.59
2018-05-26T00:45:05.642Z,14.46
2018-05-26T00:45:09.856Z,14.53
2018-05-26T00:45:13.851Z,14.42
2018-05-26T00:45:18.177Z,14.53
2018-05-26T00:45:22.294Z,14.46
2018-05-26T00:45:26.399Z,14.45
2018-05-26T00:45:30.612Z,14.49
2018-05-26T00:45:34.609Z,14.45
2018-05-26T00:45:38.712Z,14.46
2018-05-26T00:45:43.040Z,14.46
2018-05-26T00:45:47.252Z,14.44
2018-05-26T00:45:51.578Z,14.46
2018-05-26T00:45:55.799Z,14.46
2018-05-26T00:46:00.014Z,14.45
2018-05-26T00:46:04.333Z,14.41
2018-05-26T00:46:08.434Z,14.44
2018-05-26T00:46:12.543Z,14.49
2018-05-26T00:46:16.755Z,14.46
2018-05-26T00:46:20.972Z,14.54
2018-05-26T00:46:25.289Z,14.45
2018-05-26T00:46:29.392Z,14.49
2018-05-26T00:46:33.604Z,14.46
2018-05-26T00:46:37.719Z,14.53
2018-05-26T00:46:42.038Z,14.48
2018-05-26T00:46:46.143Z,14.52
2018-05-26T00:46:50.462Z,14.57
2018-05-26T00:46:54.669Z,14.41
2018-05-26T00:46:58.989Z,14.42
2018-05-26T00:47:03.311Z,14.54
2018-05-26T00:47:07.521Z,14.48
2018-05-26T00:47:11.521Z,14.42
2018-05-26T00:47:15.620Z,14.52
2018-05-26T00:47:19.941Z,14.49
2018-05-26T00:47:24.261Z,14.53
2018-05-26T00:47:28.370Z,14.41
2018-05-26T00:47:32.581Z,14.46
2018-05-26T00:47:36.901Z,14.53
2018-05-26T00:47:41.115Z,14.45
2018-05-26T00:47:45.430Z,14.49
2018-05-26T00:47:49.636Z,14.44
2018-05-26T00:47:53.846Z,14.54
2018-05-26T00:47:58.060Z,14.54
2018-05-26T00:48:02.271Z,14.53
2018-05-26T00:48:06.390Z,14.41
2018-05-26T00:48:10.503Z,14.53
2018-05-26T00:48:14.735Z,14.53
2018-05-26T00:48:18.840Z,14.48
2018-05-26T00:48:22.943Z,14.45
2018-05-26T00:48:27.259Z,14.45
2018-05-26T00:48:31.511Z,14.48
2018-05-26T00:48:35.511Z,14.49
2018-05-26T00:48:39.822Z,14.49
2018-05-26T00:48:44.143Z,14.38
2018-05-26T00:48:48.353Z,14.49
2018-05-26T00:48:52.463Z,14.53
2018-05-26T00:48:56.671Z,14.53
2018-05-26T00:49:00.891Z,14.42
2018-05-26T00:49:04.886Z,14.46
2018-05-26T00:49:08.777Z,14.48
2018-05-26T00:49:12.985Z,14.49
2018-05-26T00:49:17.244Z,14.52
2018-05-26T00:49:21.349Z,14.45
2018-05-26T00:49:25.471Z,14.46
2018-05-26T00:49:29.830Z,14.46
2018-05-26T00:49:34.044Z,14.44
2018-05-26T00:49:38.154Z,14.42
2018-05-26T00:49:42.376Z,14.45
2018-05-26T00:49:46.479Z,14.49
2018-05-26T00:49:50.801Z,14.53
2018-05-26T00:49:54.906Z,14.48
2018-05-26T00:49:59.113Z,14.49
2018-05-26T00:50:03.330Z,14.48
2018-05-26T00:50:07.274Z,14.46
2018-05-26T00:50:11.595Z,14.46
2018-05-26T00:50:15.808Z,14.49
2018-05-26T00:50:19.916Z,14.56
2018-05-26T00:50:24.173Z,14.49
2018-05-26T00:50:28.287Z,14.45
2018-05-26T00:50:32.283Z,14.46
2018-05-26T00:50:36.392Z,14.49
2018-05-26T00:50:40.613Z,14.42
2018-05-26T00:50:44.726Z,14.45
2018-05-26T00:50:48.933Z,14.44
2018-05-26T00:50:53.250Z,14.48
2018-05-26T00:50:57.607Z,14.49
2018-05-26T00:51:01.605Z,14.48
2018-05-26T00:51:05.612Z,14.45
2018-05-26T00:51:09.733Z,14.44
2018-05-26T00:51:13.939Z,14.54
2018-05-26T00:51:18.044Z,14.53
2018-05-26T00:51:22.262Z,14.46
2018-05-26T00:51:26.371Z,14.54
2018-05-26T00:51:30.473Z,14.44
2018-05-26T00:51:34.576Z,14.53
2018-05-26T00:51:38.688Z,14.44
2018-05-26T00:51:42.896Z,14.53
2018-05-26T00:51:47.220Z,14.45
2018-05-26T00:51:51.442Z,14.44
2018-05-26T00:51:55.650Z,14.46
2018-05-26T00:51:59.967Z,14.54
2018-05-26T00:52:04.237Z,14.57
2018-05-26T00:52:08.244Z,14.44
2018-05-26T00:52:12.343Z,14.39
2018-05-26T00:52:16.355Z,14.49
2018-05-26T00:52:20.564Z,14.53
2018-05-26T00:52:24.888Z,14.45
2018-05-26T00:52:28.984Z,14.57
2018-05-26T00:52:33.203Z,14.53
2018-05-26T00:52:37.415Z,14.54
2018-05-26T00:52:41.745Z,14.54
2018-05-26T00:52:45.959Z,14.56
2018-05-26T00:52:50.078Z,14.52
2018-05-26T00:52:54.295Z,14.54
2018-05-26T00:52:58.396Z,14.57
2018-05-26T00:53:02.497Z,14.56
2018-05-26T00:53:06.599Z,14.53
2018-05-26T00:53:10.924Z,14.63
2018-05-26T00:53:15.135Z,14.46
2018-05-26T00:53:19.347Z,14.53
2018-05-26T00:53:23.232Z,14.6
2018-05-26T00:53:27.446Z,14.49
2018-05-26T00:53:31.653Z,14.54
2018-05-26T00:53:35.871Z,14.52
2018-05-26T00:53:39.654Z,14.56
2018-05-26T00:53:43.966Z,14.64
2018-05-26T00:53:48.069Z,14.53
2018-05-26T00:53:52.289Z,14.59
2018-05-26T00:53:56.393Z,14.57
2018-05-26T00:54:00.721Z,14.59
2018-05-26T00:54:04.610Z,14.6
2018-05-26T00:54:08.724Z,14.54
2018-05-26T00:54:12.824Z,14.57
2018-05-26T00:54:16.927Z,14.54
2018-05-26T00:54:21.247Z,14.57
2018-05-26T00:54:25.358Z,14.52